createdAt,value
2019-01-24T00:01:05.660Z,54.03
2019-01-24T00:03:33.142Z,51.23
2019-01-24T00:06:00.517Z,53.50
2019-01-24T00:08:28.024Z,53.63
2019-01-24T00:10:55.391Z,48.43
2019-01-24T00:13:24.437Z,53.97
2019-01-24T00:15:51.862Z,49.10
2019-01-24T00:18:19.379Z,56.27
2019-01-24T00:20:46.800Z,52.33
2019-01-24T00:23:14.421Z,53.60
2019-01-24T00:25:41.819Z,58.60
2019-01-24T00:28:09.335Z,52.80
2019-01-24T00:30:36.750Z,59.33
2019-01-24T00:33:04.197Z,57.40
2019-01-24T00:35:31.663Z,39.83
2019-01-24T00:37:59.006Z,52.70
2019-01-24T00:40:26.425Z,52.57
2019-01-24T00:42:53.868Z,49.37
2019-01-24T00:45:21.286Z,41.10
2019-01-24T00:47:48.721Z,51.13
2019-01-24T00:50:16.302Z,44.07
2019-01-24T00:52:43.657Z,52.00
2019-01-24T00:55:12.010Z,48.50
2019-01-24T00:57:39.436Z,46.03
2019-01-24T01:00:08.749Z,44.60
2019-01-24T01:02:36.263Z,46.80
2019-01-24T01:05:06.086Z,41.70
2019-01-24T01:07:33.577Z,42.33
2019-01-24T01:10:00.972Z,42.70
2019-01-24T01:12:30.455Z,48.67
2019-01-24T01:14:57.935Z,37.37
2019-01-24T01:17:25.358Z,41.27
2019-01-24T01:19:52.873Z,45.33
2019-01-24T01:22:20.295Z,45.80
2019-01-24T01:24:47.750Z,43.77
2019-01-24T01:27:15.202Z,40.37
2019-01-24T01:29:42.633Z,49.77
2019-01-24T01:32:10.185Z,44.00
2019-01-24T01:34:37.608Z,43.43
2019-01-24T01:37:05.037Z,44.10
2019-01-24T01:39:32.407Z,36.33
2019-01-24T01:41:59.857Z,42.27
2019-01-24T01:44:27.299Z,40.83
2019-01-24T01:46:54.755Z,40.83
2019-01-24T01:49:22.263Z,40.43
2019-01-24T01:51:49.621Z,46.30
2019-01-24T01:54:17.207Z,41.03
2019-01-24T01:56:44.597Z,48.87
2019-01-24T01:59:12.273Z,44.67
2019-01-24T02:01:39.776Z,43.10
2019-01-24T02:04:07.229Z,40.20
2019-01-24T02:06:34.595Z,42.70
2019-01-24T02:09:01.960Z,40.70
2019-01-24T02:11:29.462Z,48.63
2019-01-24T02:13:56.959Z,39.90
2019-01-24T02:16:24.359Z,44.97
2019-01-24T02:18:51.848Z,35.17
2019-01-24T02:21:19.257Z,48.47
2019-01-24T02:23:46.745Z,38.17
2019-01-24T02:26:15.202Z,41.33
2019-01-24T02:28:42.560Z,44.17
2019-01-24T02:31:10.001Z,41.47
2019-01-24T02:33:37.388Z,42.53
2019-01-24T02:36:04.827Z,48.03
2019-01-24T02:38:32.323Z,44.87
2019-01-24T02:40:59.826Z,41.23
2019-01-24T02:43:28.881Z,46.80
2019-01-24T02:45:56.264Z,44.30
2019-01-24T02:48:23.592Z,44.40
2019-01-24T02:50:50.945Z,38.10
2019-01-24T02:53:18.395Z,38.33
2019-01-24T02:55:45.783Z,40.50
2019-01-24T02:58:13.214Z,42.80
2019-01-24T03:00:40.601Z,41.40
2019-01-24T03:03:08.039Z,42.13
2019-01-24T03:05:35.473Z,39.07
2019-01-24T03:08:02.964Z,36.83
2019-01-24T03:10:30.379Z,39.47
2019-01-24T03:12:57.813Z,39.67
2019-01-24T03:15:25.211Z,39.07
2019-01-24T03:17:52.671Z,38.43
2019-01-24T03:20:20.075Z,31.40
2019-01-24T03:22:47.651Z,38.67
2019-01-24T03:25:17.879Z,26.23
2019-01-24T03:27:45.369Z,35.30
2019-01-24T03:30:16.070Z,36.63
2019-01-24T03:32:43.453Z,33.53
2019-01-24T03:35:12.185Z,34.83
2019-01-24T03:37:39.583Z,36.77
2019-01-24T03:40:08.724Z,37.77
2019-01-24T03:42:36.052Z,42.60
2019-01-24T03:45:04.253Z,35.07
2019-01-24T03:47:31.636Z,37.37
2019-01-24T03:49:59.080Z,40.53
2019-01-24T03:52:26.638Z,36.77
2019-01-24T03:54:54.148Z,31.07
2019-01-24T03:57:21.549Z,27.47
2019-01-24T03:59:48.938Z,36.30
2019-01-24T04:02:16.331Z,30.37
2019-01-24T04:04:43.685Z,27.57
2019-01-24T04:07:11.078Z,24.13
2019-01-24T04:09:38.596Z,31.10
2019-01-24T04:12:06.031Z,36.87
2019-01-24T04:14:33.505Z,35.30
2019-01-24T04:17:00.963Z,30.90
2019-01-24T04:19:28.392Z,29.53
2019-01-24T04:21:55.813Z,35.10
2019-01-24T04:24:23.238Z,32.47
2019-01-24T04:26:50.764Z,32.03
2019-01-24T04:29:18.183Z,34.03
2019-01-24T04:31:45.598Z,34.73
2019-01-24T04:34:13.112Z,37.97
2019-01-24T04:36:40.604Z,37.70
2019-01-24T04:39:08.020Z,34.43
2019-01-24T04:41:35.430Z,41.07
2019-01-24T04:44:02.790Z,35.53
2019-01-24T04:46:30.356Z,27.87
2019-01-24T04:48:57.742Z,33.20
2019-01-24T04:51:27.575Z,31.17
2019-01-24T04:53:54.920Z,33.10
2019-01-24T04:56:22.275Z,30.07
2019-01-24T04:58:49.925Z,29.40
2019-01-24T05:01:17.318Z,33.93
2019-01-24T05:03:45.809Z,33.60
2019-01-24T05:06:13.156Z,26.03
2019-01-24T05:08:40.482Z,33.60
2019-01-24T05:11:07.866Z,32.33
2019-01-24T05:13:35.212Z,27.43
2019-01-24T05:16:02.673Z,33.17
2019-01-24T05:18:30.063Z,32.07
2019-01-24T05:20:57.486Z,42.33
2019-01-24T05:23:24.889Z,36.07
2019-01-24T05:25:52.289Z,38.30
2019-01-24T05:28:19.621Z,31.93
2019-01-24T05:30:47.055Z,42.80
2019-01-24T05:33:14.472Z,39.57
2019-01-24T05:35:41.870Z,37.83
2019-01-24T05:38:09.224Z,41.53
2019-01-24T05:40:36.621Z,24.87
2019-01-24T05:43:04.700Z,40.70
2019-01-24T05:45:32.069Z,46.63
2019-01-24T05:47:59.535Z,41.80
2019-01-24T05:50:26.878Z,35.13
2019-01-24T05:52:54.753Z,41.97
2019-01-24T05:55:22.134Z,37.27
2019-01-24T05:57:49.442Z,34.77
2019-01-24T06:00:20.077Z,41.20
2019-01-24T06:02:49.476Z,31.43
2019-01-24T06:05:17.503Z,42.77
2019-01-24T06:07:44.835Z,39.70
2019-01-24T06:10:13.340Z,38.73
2019-01-24T06:12:40.800Z,45.17
2019-01-24T06:15:09.752Z,34.07
2019-01-24T06:17:37.137Z,37.20
2019-01-24T06:20:09.886Z,38.30
2019-01-24T06:22:37.349Z,34.30
2019-01-24T06:25:05.962Z,37.73
2019-01-24T06:27:33.476Z,34.37
2019-01-24T06:30:00.817Z,36.97
2019-01-24T06:32:28.195Z,37.47
2019-01-24T06:34:55.563Z,42.50
2019-01-24T06:37:22.943Z,37.97
2019-01-24T06:39:50.307Z,32.90
2019-01-24T06:42:17.755Z,36.60
2019-01-24T06:44:45.117Z,47.10
2019-01-24T06:47:12.638Z,45.20
2019-01-24T06:49:39.970Z,39.53
2019-01-24T06:52:07.481Z,36.50
2019-01-24T06:54:34.930Z,33.97
2019-01-24T06:57:02.366Z,44.87
2019-01-24T06:59:29.701Z,41.17
2019-01-24T07:01:57.204Z,36.60
2019-01-24T07:04:24.819Z,44.40
2019-01-24T07:06:53.827Z,43.43
2019-01-24T07:09:21.211Z,40.20
2019-01-24T07:11:48.789Z,44.90
2019-01-24T07:14:18.192Z,47.47
2019-01-24T07:16:45.592Z,47.03
2019-01-24T07:19:14.627Z,49.23
2019-01-24T07:21:43.694Z,47.53
2019-01-24T07:24:13.256Z,52.77
2019-01-24T07:26:42.857Z,49.10
2019-01-24T07:29:10.387Z,49.13
2019-01-24T07:31:37.879Z,62.07
2019-01-24T07:34:05.436Z,55.63
2019-01-24T07:36:32.989Z,50.43
2019-01-24T07:39:02.133Z,46.03
2019-01-24T07:41:29.627Z,54.23
2019-01-24T07:43:59.767Z,37.80
2019-01-24T07:46:27.310Z,48.67
2019-01-24T07:48:55.955Z,46.43
2019-01-24T07:51:27.853Z,52.80
2019-01-24T07:53:56.729Z,44.33
2019-01-24T07:56:27.973Z,38.40
2019-01-24T07:58:55.575Z,42.47
2019-01-24T08:01:25.020Z,49.47
2019-01-24T08:03:53.658Z,42.27
2019-01-24T08:06:22.344Z,40.43
2019-01-24T08:08:51.065Z,44.90
2019-01-24T08:11:19.635Z,47.83
2019-01-24T08:13:47.206Z,44.37
2019-01-24T08:16:14.775Z,41.17
2019-01-24T08:18:42.448Z,41.90
2019-01-24T08:21:09.844Z,32.47
2019-01-24T08:23:37.380Z,31.60
2019-01-24T08:26:06.600Z,36.90
2019-01-24T08:28:34.139Z,38.50
2019-01-24T08:31:04.605Z,37.83
2019-01-24T08:33:32.101Z,42.40
2019-01-24T08:35:59.642Z,41.67
2019-01-24T08:38:27.181Z,38.70
2019-01-24T08:40:57.544Z,45.27
2019-01-24T08:43:25.093Z,27.83
2019-01-24T08:45:52.604Z,44.50
2019-01-24T08:48:21.691Z,46.40
2019-01-24T08:50:50.264Z,46.30
2019-01-24T08:53:17.796Z,46.87
2019-01-24T08:55:45.272Z,48.30
2019-01-24T08:58:12.812Z,46.00
2019-01-24T09:00:40.273Z,44.87
2019-01-24T09:03:09.308Z,37.00
2019-01-24T09:05:39.170Z,40.13
2019-01-24T09:08:06.582Z,37.47
2019-01-24T09:10:35.376Z,41.97
2019-01-24T09:13:09.819Z,42.07
2019-01-24T09:15:41.998Z,43.20
2019-01-24T09:18:10.008Z,47.27
2019-01-24T09:20:37.571Z,46.10
2019-01-24T09:23:08.511Z,44.97
2019-01-24T09:25:37.092Z,51.20
2019-01-24T09:28:07.057Z,49.87
2019-01-24T09:30:34.448Z,50.67
2019-01-24T09:33:01.950Z,49.50
2019-01-24T09:35:29.578Z,45.17
2019-01-24T09:37:57.008Z,45.03
2019-01-24T09:40:24.520Z,53.53
2019-01-24T09:42:51.996Z,39.30
2019-01-24T09:45:24.266Z,48.17
2019-01-24T09:47:51.763Z,46.07
2019-01-24T09:50:22.598Z,41.77
2019-01-24T09:52:53.017Z,46.97
2019-01-24T09:55:23.241Z,44.37
2019-01-24T10:01:33.126Z,41.07
2019-01-24T10:16:14.964Z,28.63
2019-01-24T10:18:43.102Z,32.67
2019-01-24T10:21:10.577Z,37.67
2019-01-24T10:23:39.708Z,39.87
2019-01-24T11:53:06.019Z,39.43
2019-01-24T11:55:33.341Z,41.50
2019-01-24T11:58:00.864Z,49.00
2019-01-24T12:00:31.481Z,37.27
2019-01-24T12:02:58.993Z,44.67
2019-01-24T12:05:26.510Z,41.00
2019-01-24T12:07:54.169Z,41.80
2019-01-24T12:10:32.179Z,40.10
2019-01-24T12:12:59.812Z,45.30
2019-01-24T12:15:28.346Z,40.77
2019-01-24T12:30:28.698Z,42.87
2019-01-24T12:32:58.821Z,45.33
2019-01-24T12:35:45.811Z,42.57
2019-01-24T12:45:11.383Z,34.93
2019-01-24T12:51:04.086Z,44.23
2019-01-24T12:56:34.887Z,45.23
2019-01-24T13:05:15.825Z,43.80
2019-01-24T13:17:00.061Z,43.33
2019-01-24T13:22:37.479Z,42.57
2019-01-24T13:28:29.575Z,41.80
2019-01-24T13:34:06.595Z,44.87
2019-01-24T14:15:49.975Z,38.30
2019-01-24T14:18:17.469Z,40.07
2019-01-24T14:20:45.035Z,28.97
2019-01-24T14:23:43.303Z,38.40
2019-01-24T14:26:11.385Z,41.80
2019-01-24T14:28:38.792Z,38.80
2019-01-24T14:31:06.401Z,41.53
2019-01-24T14:33:33.908Z,46.67
2019-01-24T14:36:25.251Z,44.00
2019-01-24T14:38:48.787Z,37.77
2019-01-24T14:41:16.296Z,40.87
2019-01-24T14:43:43.776Z,44.67
2019-01-24T14:46:11.217Z,46.70
2019-01-24T14:48:38.737Z,46.63
2019-01-24T14:51:22.203Z,52.33
2019-01-24T14:54:08.613Z,42.73
2019-01-24T14:56:43.491Z,28.47
2019-01-24T14:59:10.968Z,42.97
2019-01-24T15:01:41.536Z,38.00
2019-01-24T15:04:24.731Z,24.70
2019-01-24T15:06:52.276Z,45.00
2019-01-24T15:09:20.392Z,40.33
2019-01-24T15:12:12.021Z,42.07
2019-01-24T15:14:39.688Z,40.70
2019-01-24T15:17:07.203Z,32.57
2019-01-24T15:19:34.760Z,41.37
2019-01-24T15:22:09.758Z,41.57
2019-01-24T15:24:37.288Z,41.17
2019-01-24T15:27:07.304Z,40.03
2019-01-24T15:29:36.485Z,41.20
2019-01-24T15:32:03.910Z,37.57
2019-01-24T15:34:31.325Z,40.27
2019-01-24T15:36:58.912Z,40.20
2019-01-24T15:39:26.285Z,35.33
2019-01-24T15:41:53.786Z,41.50
2019-01-24T15:44:21.613Z,40.07
2019-01-24T15:46:50.126Z,45.43
2019-01-24T15:49:19.266Z,43.23
2019-01-24T15:51:46.886Z,40.43
2019-01-24T15:54:14.351Z,39.03
2019-01-24T15:56:42.890Z,39.43
2019-01-24T15:59:10.434Z,43.90
2019-01-24T16:01:37.852Z,50.93
2019-01-24T16:04:05.518Z,49.07
2019-01-24T16:06:33.018Z,43.67
2019-01-24T16:09:01.629Z,49.77
2019-01-24T16:11:29.118Z,44.00
2019-01-24T16:13:57.656Z,45.27
2019-01-24T16:16:25.268Z,40.10
2019-01-24T16:18:52.778Z,41.60
2019-01-24T16:21:20.404Z,41.53
2019-01-24T16:23:47.766Z,35.80
2019-01-24T16:26:15.208Z,37.63
2019-01-24T16:28:42.768Z,30.63
2019-01-24T16:31:10.137Z,37.63
2019-01-24T16:33:37.697Z,37.00
2019-01-24T16:36:05.220Z,39.60
2019-01-24T16:38:32.745Z,35.43
2019-01-24T16:41:00.295Z,43.03
2019-01-24T16:43:27.822Z,32.70
2019-01-24T16:45:55.199Z,35.97
2019-01-24T16:48:22.740Z,32.73
2019-01-24T16:50:50.094Z,37.37
2019-01-24T16:53:17.647Z,30.07
2019-01-24T16:55:45.196Z,34.50
2019-01-24T16:58:13.254Z,25.53
2019-01-24T17:00:43.638Z,35.43
2019-01-24T17:03:11.152Z,36.90
2019-01-24T17:05:38.608Z,33.77
2019-01-24T17:08:06.202Z,30.03
2019-01-24T17:10:33.622Z,31.37
2019-01-24T17:13:03.334Z,29.83
2019-01-24T17:15:30.790Z,28.07
2019-01-24T17:17:58.259Z,27.97
2019-01-24T17:20:27.286Z,31.17
2019-01-24T17:22:54.745Z,28.50
2019-01-24T17:25:22.849Z,30.60
2019-01-24T17:27:50.438Z,25.80
2019-01-24T17:30:19.188Z,28.17
2019-01-24T17:32:47.037Z,22.80
2019-01-24T17:35:14.443Z,35.47
2019-01-24T17:37:42.003Z,31.70
2019-01-24T17:40:11.042Z,30.50
2019-01-24T17:42:38.562Z,32.27
2019-01-24T17:45:07.695Z,31.60
2019-01-24T17:47:35.256Z,31.23
2019-01-24T17:50:02.780Z,36.20
2019-01-24T17:52:30.409Z,27.90
2019-01-24T17:54:59.967Z,29.00
2019-01-24T17:57:28.087Z,26.43
2019-01-24T17:59:55.665Z,31.43
2019-01-24T18:02:23.175Z,30.77
2019-01-24T18:04:52.978Z,30.93
2019-01-24T18:07:20.359Z,29.57
2019-01-24T18:09:48.127Z,35.63
2019-01-24T18:12:15.543Z,31.47
2019-01-24T18:14:42.983Z,37.23
2019-01-24T18:17:10.337Z,35.63
2019-01-24T18:19:37.855Z,27.70
2019-01-24T18:22:05.243Z,40.03
2019-01-24T18:24:32.787Z,36.10
2019-01-24T18:27:00.218Z,30.70
2019-01-24T18:29:29.523Z,39.63
2019-01-24T18:31:56.905Z,34.63
2019-01-24T18:34:24.404Z,33.23
2019-01-24T18:36:52.007Z,45.93
2019-01-24T18:39:53.986Z,47.13
2019-01-24T18:42:24.241Z,48.57
2019-01-24T18:44:51.665Z,48.33
2019-01-24T18:47:19.250Z,41.10
2019-01-24T18:49:46.779Z,41.43
2019-01-24T18:52:14.375Z,47.33
2019-01-24T18:54:43.001Z,50.67
2019-01-24T18:57:10.505Z,52.50
2019-01-24T18:59:38.068Z,51.00
2019-01-24T19:02:06.035Z,55.37
2019-01-24T19:04:33.651Z,46.00
2019-01-24T19:07:01.008Z,46.97
2019-01-24T19:09:28.565Z,56.27
2019-01-24T19:11:58.335Z,47.50
2019-01-24T19:14:25.814Z,50.07
2019-01-24T19:16:53.461Z,46.30
2019-01-24T19:19:21.053Z,46.33
2019-01-24T19:21:51.887Z,44.93
2019-01-24T19:24:19.422Z,38.83
2019-01-24T19:26:48.277Z,42.97
2019-01-24T19:29:15.734Z,37.27
2019-01-24T19:31:43.187Z,39.80
2019-01-24T19:34:10.646Z,42.07
2019-01-24T19:36:38.085Z,37.77
2019-01-24T19:39:06.648Z,37.47
2019-01-24T19:41:34.096Z,42.57
2019-01-24T19:44:01.619Z,45.53
2019-01-24T19:46:29.011Z,44.77
2019-01-24T19:48:56.442Z,47.50
2019-01-24T19:51:23.942Z,46.77
2019-01-24T19:53:51.431Z,37.33
2019-01-24T19:56:18.987Z,32.60
2019-01-24T19:58:46.748Z,40.20
2019-01-24T20:01:14.278Z,31.10
2019-01-24T20:03:41.768Z,31.20
2019-01-24T20:06:09.331Z,39.40
2019-01-24T20:08:36.757Z,33.43
2019-01-24T20:11:04.281Z,40.77
2019-01-24T20:13:31.796Z,41.33
2019-01-24T20:15:59.295Z,40.77
2019-01-24T20:18:26.750Z,44.70
2019-01-24T20:20:54.238Z,43.83
2019-01-24T20:23:21.816Z,49.33
2019-01-24T20:25:49.219Z,47.30
2019-01-24T20:28:16.724Z,45.30
2019-01-24T20:30:44.134Z,45.13
2019-01-24T20:33:11.590Z,36.87
2019-01-24T20:35:40.526Z,45.20
2019-01-24T20:38:29.930Z,39.13
2019-01-24T20:40:57.415Z,44.93
2019-01-24T20:43:25.022Z,46.20
2019-01-24T20:45:52.560Z,42.47
2019-01-24T20:48:20.006Z,48.27
2019-01-24T20:50:47.342Z,57.60
2019-01-24T20:53:14.911Z,51.33
2019-01-24T20:55:42.396Z,36.03
2019-01-24T20:58:09.899Z,46.53
2019-01-24T21:00:37.831Z,52.20
2019-01-24T21:03:05.908Z,44.90
2019-01-24T21:05:33.334Z,47.50
2019-01-24T21:08:00.893Z,48.60
2019-01-24T21:10:29.093Z,53.73
2019-01-24T21:12:57.175Z,47.17
2019-01-24T21:15:24.604Z,46.70
2019-01-24T21:17:52.092Z,49.67
2019-01-24T21:20:20.526Z,49.83
2019-01-24T21:22:47.964Z,48.17
2019-01-24T21:25:16.545Z,54.53
2019-01-24T21:27:44.400Z,44.43
2019-01-24T21:30:16.566Z,47.10
2019-01-24T21:32:44.591Z,50.80
2019-01-24T21:35:17.459Z,41.40
2019-01-24T21:37:44.832Z,45.60
2019-01-24T21:40:14.028Z,44.33
2019-01-24T21:42:41.511Z,47.83
2019-01-24T21:45:10.580Z,31.90
2019-01-24T21:47:37.996Z,46.73
2019-01-24T21:50:07.069Z,50.10
2019-01-24T21:52:34.493Z,43.00
2019-01-24T21:55:01.944Z,49.53
2019-01-24T21:57:29.486Z,34.53
2019-01-24T21:59:56.901Z,46.13
2019-01-24T22:02:24.402Z,51.30
2019-01-24T22:04:51.910Z,45.03
2019-01-24T22:07:20.358Z,53.80
2019-01-24T22:09:51.423Z,49.80
2019-01-24T22:12:18.998Z,42.10
2019-01-24T22:14:46.422Z,49.63
2019-01-24T22:17:13.830Z,48.53
2019-01-24T22:19:41.392Z,49.30
2019-01-24T22:22:08.959Z,44.23
2019-01-24T22:24:39.936Z,50.60
2019-01-24T22:27:12.511Z,50.63
2019-01-24T22:29:41.346Z,50.60
2019-01-24T22:32:09.022Z,52.00
2019-01-24T22:34:36.830Z,48.47
2019-01-24T22:37:04.376Z,52.10
2019-01-24T22:39:36.586Z,60.03
2019-01-24T22:42:00.869Z,52.27
2019-01-24T22:44:28.267Z,51.23
2019-01-24T22:46:55.729Z,54.40
2019-01-24T22:49:24.168Z,52.17
2019-01-24T22:51:51.529Z,58.57
2019-01-24T22:54:18.910Z,45.27
2019-01-24T22:56:46.706Z,53.83
2019-01-24T22:59:14.297Z,52.87
2019-01-24T23:01:43.093Z,56.70
2019-01-24T23:04:10.893Z,51.30
2019-01-24T23:06:38.414Z,50.30
2019-01-24T23:09:07.542Z,48.73
2019-01-24T23:11:35.069Z,52.07
2019-01-24T23:14:02.590Z,56.57
2019-01-24T23:16:30.167Z,59.37
2019-01-24T23:18:58.861Z,51.60
2019-01-24T23:21:26.228Z,53.73
2019-01-24T23:23:53.651Z,47.43
2019-01-24T23:26:22.957Z,51.80
2019-01-24T23:28:50.395Z,56.57
2019-01-24T23:31:17.833Z,51.23
2019-01-24T23:33:45.229Z,46.43
2019-01-24T23:36:12.675Z,63.77
2019-01-24T23:38:40.035Z,57.60
2019-01-24T23:41:07.455Z,45.47
2019-01-24T23:43:36.137Z,59.47
2019-01-24T23:46:03.663Z,58.77
2019-01-24T23:48:31.050Z,47.23
2019-01-24T23:50:58.498Z,49.87
2019-01-24T23:53:26.090Z,58.87
2019-01-24T23:55:53.527Z,51.07
2019-01-24T23:58:21.025Z,50.23
